Time;durP1;ratioP1;P1;durP2;ratioP2;P2;SDS_P1;SDS_P2;PMS_P1;PMS_P2;Temp;Humidity;BMP_temperature;BMP_pressure;BME280_temperature;BME280_humidity;BME280_pressure;Samples;Min_cycle;Max_cycle;Signal;HPM_P1;HPM_P2
2023/09/04 00:02:00;;;;;;;0.77;0.63;;;;;;;;;;4999395;28;20021;-80
2023/09/04 00:04:26;;;;;;;1.25;0.77;;;;;;;;;;5000278;28;20427;-80
2023/09/04 00:06:52;;;;;;;0.90;0.80;;;;;;;;;;5001616;28;20025;-80
2023/09/04 00:09:18;;;;;;;2.42;0.80;;;;;;;;;;5006764;28;20033;-80
2023/09/04 00:11:44;;;;;;;0.45;0.45;;;;;;;;;;5001481;28;20390;-79
2023/09/04 00:14:11;;;;;;;0.82;0.82;;;;;;;;;;4993526;28;20487;-79
2023/09/04 00:16:37;;;;;;;3.70;1.13;;;;;;;;;;5002258;28;20077;-79
2023/09/04 00:19:03;;;;;;;3.33;1.17;;;;;;;;;;5001792;28;20035;-79
2023/09/04 00:21:29;;;;;;;2.35;1.33;;;;;;;;;;5007206;28;20056;-79
2023/09/04 00:23:55;;;;;;;1.23;1.02;;;;;;;;;;4995320;28;20034;-79
2023/09/04 00:26:21;;;;;;;1.00;0.80;;;;;;;;;;4999045;28;20040;-79
2023/09/04 00:28:47;;;;;;;0.85;0.60;;;;;;;;;;4993503;28;20399;-79
2023/09/04 00:31:13;;;;;;;1.05;0.82;;;;;;;;;;4996203;28;20041;-79
2023/09/04 00:33:39;;;;;;;1.77;0.80;;;;;;;;;;4999362;28;20028;-79
2023/09/04 00:36:05;;;;;;;0.50;0.50;;;;;;;;;;5002555;28;20073;-79
2023/09/04 00:38:31;;;;;;;1.38;0.70;;;;;;;;;;5001882;28;20033;-79
2023/09/04 00:40:57;;;;;;;1.85;0.70;;;;;;;;;;4995062;28;20450;-79
2023/09/04 00:43:23;;;;;;;0.80;0.70;;;;;;;;;;5003093;28;20450;-79
2023/09/04 00:45:49;;;;;;;0.63;0.57;;;;;;;;;;4999693;28;20033;-80
2023/09/04 00:48:15;;;;;;;0.98;0.63;;;;;;;;;;5001808;28;20046;-80
2023/09/04 00:50:43;;;;;;;0.70;0.70;;;;;;;;;;4996221;28;20042;-80
2023/09/04 00:53:10;;;;;;;1.02;0.80;;;;;;;;;;4997070;28;20036;-79
2023/09/04 00:55:36;;;;;;;1.23;0.90;;;;;;;;;;4996722;28;20029;-79
2023/09/04 00:58:03;;;;;;;0.80;0.70;;;;;;;;;;4995479;28;20061;-80
2023/09/04 01:00:29;;;;;;;0.65;0.63;;;;;;;;;;4996151;28;20030;-80
2023/09/04 01:02:56;;;;;;;0.60;0.60;;;;;;;;;;4998062;28;20085;-79
2023/09/04 01:05:22;;;;;;;1.63;0.85;;;;;;;;;;4993362;28;20038;-80
2023/09/04 01:07:49;;;;;;;1.45;0.90;;;;;;;;;;4989170;28;20482;-79
2023/09/04 01:10:15;;;;;;;1.73;0.80;;;;;;;;;;4990451;28;20049;-79
2023/09/04 01:12:52;;;;;;;2.90;1.17;;;;;;;;;;4988815;28;20113;-79
2023/09/04 01:15:18;;;;;;;1.08;0.70;;;;;;;;;;4995410;28;20486;-80
2023/09/04 01:17:45;;;;;;;1.90;0.90;;;;;;;;;;5000754;28;20034;-80
2023/09/04 01:20:22;;;;;;;1.48;0.82;;;;;;;;;;5003326;28;20486;-80
2023/09/04 01:22:48;;;;;;;0.52;0.52;;;;;;;;;;4991876;28;20030;-79
2023/09/04 01:25:15;;;;;;;1.00;0.70;;;;;;;;;;4995167;28;20018;-80
2023/09/04 01:27:44;;;;;;;0.93;0.70;;;;;;;;;;5001016;28;20053;-79
2023/09/04 01:30:12;;;;;;;1.77;0.90;;;;;;;;;;5002644;28;20033;-79
2023/09/04 01:32:43;;;;;;;1.45;0.70;;;;;;;;;;4998755;28;20037;-80
2023/09/04 01:35:10;;;;;;;1.10;0.80;;;;;;;;;;4999675;28;20034;-79
2023/09/04 01:37:36;;;;;;;1.55;0.65;;;;;;;;;;5002832;28;20514;-79
2023/09/04 01:40:04;;;;;;;0.75;0.75;;;;;;;;;;4995664;28;20034;-80
2023/09/04 01:42:30;;;;;;;1.17;0.70;;;;;;;;;;4992582;28;20510;-80
2023/09/04 01:44:56;;;;;;;0.80;0.77;;;;;;;;;;4995405;28;20026;-80
2023/09/04 01:47:22;;;;;;;1.13;0.52;;;;;;;;;;4996947;28;20030;-80
2023/09/04 01:49:49;;;;;;;1.65;0.70;;;;;;;;;;4995149;28;20402;-79
2023/09/04 01:52:15;;;;;;;0.80;0.80;;;;;;;;;;4996989;28;20026;-79
2023/09/04 01:54:41;;;;;;;3.08;0.70;;;;;;;;;;5003497;28;20026;-79
2023/09/04 01:57:06;;;;;;;0.75;0.70;;;;;;;;;;5002644;28;20490;-79
2023/09/04 01:59:33;;;;;;;1.55;0.82;;;;;;;;;;4997600;28;20038;-79
2023/09/04 02:01:59;;;;;;;1.67;0.80;;;;;;;;;;5002099;28;20022;-79
2023/09/04 02:04:25;;;;;;;2.80;0.82;;;;;;;;;;4998491;28;20104;-80
2023/09/04 02:06:51;;;;;;;1.20;1.10;;;;;;;;;;4989908;28;20046;-80
2023/09/04 02:09:17;;;;;;;0.82;0.82;;;;;;;;;;5002627;28;20033;-79
2023/09/04 02:11:43;;;;;;;0.80;0.80;;;;;;;;;;4997428;28;20387;-79
2023/09/04 02:14:09;;;;;;;2.60;0.88;;;;;;;;;;4996303;28;20022;-80
2023/09/04 02:16:35;;;;;;;1.73;1.00;;;;;;;;;;4999837;28;20654;-80
2023/09/04 02:19:01;;;;;;;2.20;1.00;;;;;;;;;;4998717;28;20023;-80
2023/09/04 02:21:27;;;;;;;0.95;0.80;;;;;;;;;;5007678;28;20486;-79
2023/09/04 02:23:53;;;;;;;0.70;0.60;;;;;;;;;;5001594;28;20037;-79
2023/09/04 02:26:19;;;;;;;0.57;0.57;;;;;;;;;;5009433;28;20442;-79
2023/09/04 02:28:45;;;;;;;0.68;0.68;;;;;;;;;;4997477;28;20423;-79
2023/09/04 02:31:11;;;;;;;1.38;1.00;;;;;;;;;;4993677;28;20038;-80
2023/09/04 02:33:37;;;;;;;1.38;0.82;;;;;;;;;;5004428;28;20092;-80
2023/09/04 02:36:03;;;;;;;1.10;0.80;;;;;;;;;;5008645;28;20033;-80
2023/09/04 02:38:29;;;;;;;1.10;0.90;;;;;;;;;;5007453;28;20014;-79
2023/09/04 02:40:55;;;;;;;1.20;1.10;;;;;;;;;;4992485;28;20050;-79
2023/09/04 02:43:21;;;;;;;2.10;0.90;;;;;;;;;;4994889;28;20606;-79
2023/09/04 02:45:47;;;;;;;1.00;0.55;;;;;;;;;;4998869;28;20014;-79
2023/09/04 02:48:13;;;;;;;0.80;0.65;;;;;;;;;;4996787;28;20022;-79
2023/09/04 02:50:40;;;;;;;1.08;0.73;;;;;;;;;;5004241;28;20493;-80
2023/09/04 02:53:06;;;;;;;1.23;0.90;;;;;;;;;;4998573;28;20136;-80
2023/09/04 02:55:32;;;;;;;0.90;0.75;;;;;;;;;;5001187;28;20543;-80
2023/09/04 02:57:58;;;;;;;1.70;1.02;;;;;;;;;;5005109;28;20463;-79
2023/09/04 03:00:24;;;;;;;1.02;0.80;;;;;;;;;;5004975;28;20347;-80
2023/09/04 03:02:50;;;;;;;1.08;0.98;;;;;;;;;;4995344;28;20647;-80
2023/09/04 03:05:17;;;;;;;0.82;0.70;;;;;;;;;;5002702;28;20486;-79
2023/09/04 03:07:43;;;;;;;0.85;0.85;;;;;;;;;;5000475;28;20046;-79
2023/09/04 03:10:09;;;;;;;0.82;0.63;;;;;;;;;;5005338;28;20513;-80
2023/09/04 03:12:35;;;;;;;1.65;0.93;;;;;;;;;;5005013;28;20433;-80
2023/09/04 03:15:02;;;;;;;1.45;0.70;;;;;;;;;;4999686;28;20109;-79
2023/09/04 03:17:29;;;;;;;1.55;0.75;;;;;;;;;;5002871;28;20216;-80
2023/09/04 03:19:56;;;;;;;1.48;1.00;;;;;;;;;;5006888;28;20029;-79
2023/09/04 03:22:22;;;;;;;1.17;0.70;;;;;;;;;;5007537;28;20038;-80
2023/09/04 03:24:49;;;;;;;0.68;0.68;;;;;;;;;;4999770;28;20023;-79
2023/09/04 03:27:15;;;;;;;2.50;0.70;;;;;;;;;;4998820;28;20029;-80
2023/09/04 03:29:41;;;;;;;1.38;0.85;;;;;;;;;;5001277;28;20051;-79
2023/09/04 03:32:07;;;;;;;0.65;0.65;;;;;;;;;;4992763;28;20070;-79
2023/09/04 03:34:33;;;;;;;1.00;0.90;;;;;;;;;;4998388;28;20034;-79
2023/09/04 03:36:59;;;;;;;0.80;0.80;;;;;;;;;;4997210;28;20371;-80
2023/09/04 03:39:25;;;;;;;0.60;0.60;;;;;;;;;;5000797;28;20030;-79
2023/09/04 03:41:51;;;;;;;0.90;0.80;;;;;;;;;;5003476;28;20035;-79
2023/09/04 03:44:17;;;;;;;0.95;0.82;;;;;;;;;;5006747;28;20095;-79
2023/09/04 03:46:43;;;;;;;1.08;0.88;;;;;;;;;;4998116;28;20049;-80
2023/09/04 03:49:09;;;;;;;0.70;0.70;;;;;;;;;;5004278;28;20072;-79
2023/09/04 03:51:35;;;;;;;1.35;0.93;;;;;;;;;;5000188;28;20030;-80
2023/09/04 03:54:02;;;;;;;1.17;0.95;;;;;;;;;;4999928;28;20062;-80
2023/09/04 03:56:31;;;;;;;1.42;0.80;;;;;;;;;;4992572;28;20033;-80
2023/09/04 03:58:59;;;;;;;2.63;0.82;;;;;;;;;;4995961;28;20056;-80
2023/09/04 04:01:28;;;;;;;0.60;0.60;;;;;;;;;;5000091;28;20037;-80
2023/09/04 04:03:54;;;;;;;1.65;0.80;;;;;;;;;;5001630;28;20552;-79
2023/09/04 04:06:22;;;;;;;0.77;0.77;;;;;;;;;;5003120;28;20034;-79
2023/09/04 04:08:50;;;;;;;0.77;0.57;;;;;;;;;;4997910;28;20053;-79
2023/09/04 04:11:18;;;;;;;1.20;0.82;;;;;;;;;;4999877;28;20038;-79
2023/09/04 04:13:45;;;;;;;1.13;0.85;;;;;;;;;;4989852;28;20729;-78
2023/09/04 04:16:10;;;;;;;1.10;0.82;;;;;;;;;;4997639;28;20022;-78
2023/09/04 04:18:36;;;;;;;1.83;0.85;;;;;;;;;;5003705;28;20018;-78
2023/09/04 04:21:04;;;;;;;0.63;0.63;;;;;;;;;;4999291;28;20030;-78
2023/09/04 04:23:30;;;;;;;0.82;0.77;;;;;;;;;;5001828;28;20026;-79
2023/09/04 04:25:56;;;;;;;0.98;0.85;;;;;;;;;;4996385;28;20080;-80
2023/09/04 04:28:22;;;;;;;0.95;0.77;;;;;;;;;;4994969;28;20121;-84
2023/09/04 04:30:48;;;;;;;0.82;0.82;;;;;;;;;;5001421;28;20013;-79
2023/09/04 04:33:14;;;;;;;0.70;0.70;;;;;;;;;;4990479;28;20114;-78
2023/09/04 04:35:40;;;;;;;0.82;0.60;;;;;;;;;;4993961;28;20033;-78
2023/09/04 04:38:07;;;;;;;0.77;0.73;;;;;;;;;;4994276;28;20497;-83
2023/09/04 04:40:33;;;;;;;0.70;0.70;;;;;;;;;;4995676;28;20025;-83
2023/09/04 04:42:59;;;;;;;2.00;1.20;;;;;;;;;;4998175;28;20018;-81
2023/09/04 04:45:25;;;;;;;1.42;1.02;;;;;;;;;;4992526;28;20056;-82
2023/09/04 04:47:51;;;;;;;1.05;0.80;;;;;;;;;;4992534;28;20034;-81
2023/09/04 04:50:17;;;;;;;0.80;0.60;;;;;;;;;;4993075;28;20514;-79
2023/09/04 04:52:43;;;;;;;1.33;0.90;;;;;;;;;;4995778;28;20490;-79
2023/09/04 04:55:12;;;;;;;1.33;0.80;;;;;;;;;;4995249;28;20038;-79
2023/09/04 04:57:38;;;;;;;2.05;1.05;;;;;;;;;;5002406;28;20054;-79
2023/09/04 05:00:07;;;;;;;1.00;0.90;;;;;;;;;;4994845;28;20022;-79
2023/09/04 05:02:34;;;;;;;1.27;0.98;;;;;;;;;;5001842;28;20037;-78
2023/09/04 05:05:00;;;;;;;1.05;0.85;;;;;;;;;;5000468;28;20022;-79
2023/09/04 05:07:29;;;;;;;1.75;0.98;;;;;;;;;;5005476;28;20545;-79
2023/09/04 05:09:56;;;;;;;1.30;0.88;;;;;;;;;;4984712;28;20044;-80
2023/09/04 05:12:22;;;;;;;1.05;0.95;;;;;;;;;;4991470;28;20032;-80
2023/09/04 05:14:52;;;;;;;0.73;0.73;;;;;;;;;;5004256;28;20152;-79
2023/09/04 05:17:18;;;;;;;0.75;0.70;;;;;;;;;;5000176;28;20033;-79
2023/09/04 05:19:44;;;;;;;1.15;0.95;;;;;;;;;;4997259;28;20027;-74
2023/09/04 05:22:10;;;;;;;0.70;0.70;;;;;;;;;;5001796;28;20076;-78
2023/09/04 05:24:36;;;;;;;1.10;0.80;;;;;;;;;;5007086;28;20053;-79
2023/09/04 05:27:05;;;;;;;1.08;0.70;;;;;;;;;;5002795;28;20764;-78
2023/09/04 05:29:31;;;;;;;0.80;0.80;;;;;;;;;;4988408;28;20550;-79
2023/09/04 05:31:57;;;;;;;0.70;0.60;;;;;;;;;;4988719;28;20030;-78
2023/09/04 05:34:23;;;;;;;0.82;0.70;;;;;;;;;;4999130;28;20692;-76
2023/09/04 05:36:49;;;;;;;0.80;0.80;;;;;;;;;;4997192;28;20033;-79
2023/09/04 05:39:15;;;;;;;1.20;1.05;;;;;;;;;;5000308;28;20022;-78
2023/09/04 05:41:42;;;;;;;0.68;0.68;;;;;;;;;;5004147;28;20173;-79
2023/09/04 05:44:08;;;;;;;0.90;0.75;;;;;;;;;;4995816;28;20502;-78
2023/09/04 05:47:01;;;;;;;1.98;1.02;;;;;;;;;;5001384;28;20045;-77
2023/09/04 05:49:27;;;;;;;0.80;0.70;;;;;;;;;;4984622;28;20541;-78
2023/09/04 05:51:54;;;;;;;0.77;0.77;;;;;;;;;;5011460;28;20034;-78
2023/09/04 05:54:20;;;;;;;0.85;0.77;;;;;;;;;;4998945;28;20125;-78
2023/09/04 05:56:46;;;;;;;0.75;0.75;;;;;;;;;;5001940;28;20513;-78
2023/09/04 05:59:12;;;;;;;0.60;0.60;;;;;;;;;;4992135;28;20108;-78
2023/09/04 06:01:38;;;;;;;0.70;0.70;;;;;;;;;;4993245;28;20034;-78
2023/09/04 06:04:07;;;;;;;1.25;1.00;;;;;;;;;;5001916;28;20057;-78
2023/09/04 06:06:33;;;;;;;0.93;0.93;;;;;;;;;;4993319;28;20054;-78
2023/09/04 06:08:59;;;;;;;0.70;0.70;;;;;;;;;;4998084;28;20052;-78
2023/09/04 06:11:25;;;;;;;1.20;0.85;;;;;;;;;;4991594;28;20026;-78
2023/09/04 06:13:51;;;;;;;0.93;0.70;;;;;;;;;;4997888;28;20029;-78
2023/09/04 06:16:19;;;;;;;1.35;0.75;;;;;;;;;;5001511;28;20026;-78
2023/09/04 06:18:45;;;;;;;1.00;0.90;;;;;;;;;;5009465;28;20513;-78
2023/09/04 06:21:11;;;;;;;1.77;1.02;;;;;;;;;;5005058;28;20121;-78
2023/09/04 06:23:37;;;;;;;1.05;0.85;;;;;;;;;;4991843;28;20110;-78
2023/09/04 06:26:03;;;;;;;1.95;1.00;;;;;;;;;;4999394;28;20513;-78
2023/09/04 06:28:29;;;;;;;0.98;0.85;;;;;;;;;;5010850;28;20021;-78
2023/09/04 06:30:57;;;;;;;0.60;0.60;;;;;;;;;;5002657;28;20022;-78
2023/09/04 06:33:27;;;;;;;1.63;0.95;;;;;;;;;;5005606;28;20036;-78
2023/09/04 06:35:53;;;;;;;0.70;0.70;;;;;;;;;;4991929;28;20018;-78
2023/09/04 06:38:19;;;;;;;0.77;0.70;;;;;;;;;;4990891;28;20029;-78
2023/09/04 06:40:45;;;;;;;0.77;0.68;;;;;;;;;;5000644;28;20045;-79
2023/09/04 06:43:11;;;;;;;1.65;0.70;;;;;;;;;;4999199;28;20030;-79
2023/09/04 06:45:37;;;;;;;1.00;0.93;;;;;;;;;;4991417;28;20030;-78
2023/09/04 06:48:04;;;;;;;0.60;0.60;;;;;;;;;;4990951;28;20029;-78
2023/09/04 06:50:30;;;;;;;1.20;1.00;;;;;;;;;;5005835;28;20037;-78
2023/09/04 06:52:56;;;;;;;1.10;0.90;;;;;;;;;;5002075;28;20038;-78
2023/09/04 06:55:22;;;;;;;1.52;0.90;;;;;;;;;;4991085;28;20085;-78
2023/09/04 06:57:48;;;;;;;0.70;0.70;;;;;;;;;;5002761;28;20031;-79
2023/09/04 07:00:15;;;;;;;0.70;0.70;;;;;;;;;;4990937;28;20034;-78
2023/09/04 07:02:41;;;;;;;0.93;0.82;;;;;;;;;;4993857;28;20490;-78
2023/09/04 07:05:08;;;;;;;2.00;1.10;;;;;;;;;;5000008;28;20026;-78
2023/09/04 07:07:37;;;;;;;1.40;1.00;;;;;;;;;;5006491;28;20029;-78
2023/09/04 07:10:03;;;;;;;1.13;0.77;;;;;;;;;;5009749;28;20045;-78
2023/09/04 07:12:31;;;;;;;1.30;0.90;;;;;;;;;;5005000;28;20487;-79
2023/09/04 07:14:57;;;;;;;1.55;1.00;;;;;;;;;;4999251;28;20080;-79
2023/09/04 07:17:23;;;;;;;1.20;0.88;;;;;;;;;;4992445;28;20038;-78
2023/09/04 07:19:49;;;;;;;0.80;0.60;;;;;;;;;;4990819;28;20050;-79
2023/09/04 07:22:15;;;;;;;1.63;0.70;;;;;;;;;;4990463;28;20034;-79
2023/09/04 07:24:41;;;;;;;1.52;1.02;;;;;;;;;;4996369;28;20417;-78
2023/09/04 07:27:07;;;;;;;0.95;0.85;;;;;;;;;;4991938;28;20067;-79
2023/09/04 07:29:35;;;;;;;1.70;1.00;;;;;;;;;;4991943;28;20031;-79
2023/09/04 07:32:02;;;;;;;1.38;1.05;;;;;;;;;;4990045;28;20483;-78
2023/09/04 07:34:28;;;;;;;2.65;0.90;;;;;;;;;;5006205;28;20030;-79
2023/09/04 07:36:54;;;;;;;0.52;0.52;;;;;;;;;;5008500;28;20026;-78
2023/09/04 07:39:20;;;;;;;0.70;0.70;;;;;;;;;;5007452;28;20022;-78
2023/09/04 07:41:46;;;;;;;0.75;0.70;;;;;;;;;;4992718;28;20399;-79
2023/09/04 07:44:12;;;;;;;0.90;0.90;;;;;;;;;;5000043;28;20045;-78
2023/09/04 07:46:38;;;;;;;0.90;0.77;;;;;;;;;;4992569;28;20034;-78
2023/09/04 07:49:04;;;;;;;1.05;0.73;;;;;;;;;;4997572;28;20033;-79
2023/09/04 07:51:30;;;;;;;2.00;0.70;;;;;;;;;;4992518;28;20026;-79
2023/09/04 07:53:56;;;;;;;1.55;1.02;;;;;;;;;;4996845;28;20069;-79
2023/09/04 07:56:22;;;;;;;1.42;0.73;;;;;;;;;;4991876;28;20029;-78
2023/09/04 07:58:48;;;;;;;0.85;0.68;;;;;;;;;;4989643;28;20035;-78
2023/09/04 08:01:14;;;;;;;1.25;1.10;;;;;;;;;;5001253;28;20080;-79
2023/09/04 08:03:41;;;;;;;0.80;0.80;;;;;;;;;;4996986;28;20026;-78
2023/09/04 08:06:07;;;;;;;2.70;0.80;;;;;;;;;;5006634;28;20385;-79
2023/09/04 08:08:33;;;;;;;0.80;0.80;;;;;;;;;;5009266;28;20152;-79
2023/09/04 08:10:59;;;;;;;1.02;0.82;;;;;;;;;;4997662;28;20102;-79
2023/09/04 08:13:25;;;;;;;0.73;0.73;;;;;;;;;;4996392;28;20488;-79
2023/09/04 08:15:51;;;;;;;0.88;0.77;;;;;;;;;;4991142;28;20026;-80
2023/09/04 08:18:17;;;;;;;0.60;0.60;;;;;;;;;;4989073;28;20018;-79
2023/09/04 08:20:43;;;;;;;1.15;0.80;;;;;;;;;;4993644;28;20014;-78
2023/09/04 08:23:09;;;;;;;0.70;0.70;;;;;;;;;;4989550;28;20038;-78
2023/09/04 08:25:35;;;;;;;0.77;0.77;;;;;;;;;;5003245;28;20037;-79
2023/09/04 08:28:02;;;;;;;1.00;0.75;;;;;;;;;;5008852;28;20040;-79
2023/09/04 08:30:28;;;;;;;0.88;0.73;;;;;;;;;;5007476;28;20037;-79
2023/09/04 08:32:54;;;;;;;2.70;1.02;;;;;;;;;;5000283;28;20475;-79
2023/09/04 08:35:20;;;;;;;1.20;1.00;;;;;;;;;;5006319;28;20034;-79
2023/09/04 08:37:47;;;;;;;0.85;0.77;;;;;;;;;;4988864;28;20110;-79
2023/09/04 08:40:13;;;;;;;0.85;0.80;;;;;;;;;;4993841;28;20032;-79
2023/09/04 08:42:39;;;;;;;1.25;0.77;;;;;;;;;;5009101;28;20037;-79
2023/09/04 08:45:09;;;;;;;1.20;0.70;;;;;;;;;;5005216;28;20037;-79
2023/09/04 08:47:41;;;;;;;1.15;0.85;;;;;;;;;;4990793;28;20494;-79
2023/09/04 08:50:08;;;;;;;0.93;0.70;;;;;;;;;;5008237;28;20609;-79
2023/09/04 08:52:36;;;;;;;0.98;0.57;;;;;;;;;;5008270;28;20061;-79
2023/09/04 08:55:02;;;;;;;1.15;1.05;;;;;;;;;;5005686;28;20030;-79
2023/09/04 08:57:30;;;;;;;0.85;0.77;;;;;;;;;;5003363;28;20053;-79
2023/09/04 08:59:56;;;;;;;1.00;0.90;;;;;;;;;;5001675;28;20037;-79
2023/09/04 09:02:22;;;;;;;2.38;0.70;;;;;;;;;;4988618;28;20030;-79
2023/09/04 09:04:48;;;;;;;0.60;0.50;;;;;;;;;;4998819;28;20037;-79
2023/09/04 09:07:14;;;;;;;1.33;1.02;;;;;;;;;;4998053;28;20068;-79
2023/09/04 09:09:44;;;;;;;1.60;0.65;;;;;;;;;;5004338;28;20434;-79
2023/09/04 09:12:10;;;;;;;0.80;0.80;;;;;;;;;;5008363;28;20030;-79
2023/09/04 09:14:36;;;;;;;0.60;0.60;;;;;;;;;;5008278;28;20041;-79
2023/09/04 09:17:03;;;;;;;1.48;0.80;;;;;;;;;;5006868;28;20088;-79
2023/09/04 09:19:32;;;;;;;0.80;0.80;;;;;;;;;;5003848;28;20069;-79
2023/09/04 09:22:08;;;;;;;1.00;0.90;;;;;;;;;;5005437;28;20088;-78
2023/09/04 09:24:34;;;;;;;1.10;0.90;;;;;;;;;;5004916;28;20113;-79
2023/09/04 09:27:00;;;;;;;0.90;0.70;;;;;;;;;;4998511;28;20578;-79
2023/09/04 09:29:26;;;;;;;0.95;0.73;;;;;;;;;;4995144;28;20434;-74
2023/09/04 09:31:53;;;;;;;0.98;0.90;;;;;;;;;;5003635;28;20038;-77
2023/09/04 09:34:19;;;;;;;0.68;0.50;;;;;;;;;;5008894;28;20125;-78
2023/09/04 09:36:45;;;;;;;0.88;0.73;;;;;;;;;;5010496;28;20520;-78
2023/09/04 09:39:11;;;;;;;0.57;0.57;;;;;;;;;;5003067;28;20028;-78
2023/09/04 09:41:37;;;;;;;0.60;0.60;;;;;;;;;;4995909;28;20026;-78
2023/09/04 09:44:04;;;;;;;0.57;0.57;;;;;;;;;;5000956;28;20482;-78
2023/09/04 09:46:30;;;;;;;0.50;0.50;;;;;;;;;;5009147;28;20116;-78
2023/09/04 09:48:56;;;;;;;0.90;0.52;;;;;;;;;;5013801;28;20025;-78
2023/09/04 09:51:22;;;;;;;0.65;0.60;;;;;;;;;;5009611;28;20112;-78
2023/09/04 09:53:53;;;;;;;0.93;0.88;;;;;;;;;;5005151;28;20480;-78
2023/09/04 09:56:20;;;;;;;0.80;0.57;;;;;;;;;;5008733;28;20026;-78
2023/09/04 09:58:47;;;;;;;0.60;0.60;;;;;;;;;;5016828;28;20068;-78
2023/09/04 10:01:13;;;;;;;0.65;0.65;;;;;;;;;;4998736;28;20019;-78
2023/09/04 10:03:39;;;;;;;0.60;0.60;;;;;;;;;;5001954;28;20014;-79
2023/09/04 10:06:06;;;;;;;0.80;0.75;;;;;;;;;;5001368;28;20022;-78
2023/09/04 10:08:34;;;;;;;0.77;0.70;;;;;;;;;;5008794;28;20144;-78
2023/09/04 10:11:01;;;;;;;0.60;0.60;;;;;;;;;;5004175;28;20126;-78
2023/09/04 10:13:28;;;;;;;0.60;0.52;;;;;;;;;;5002429;28;20034;-78
2023/09/04 10:15:57;;;;;;;0.82;0.70;;;;;;;;;;5001928;28;21734;-78
2023/09/04 10:18:27;;;;;;;1.38;0.80;;;;;;;;;;5007712;28;20036;-78
2023/09/04 10:20:54;;;;;;;0.70;0.70;;;;;;;;;;5009425;28;20083;-78
2023/09/04 10:23:24;;;;;;;1.13;1.00;;;;;;;;;;5011764;28;20044;-78
2023/09/04 10:25:58;;;;;;;0.50;0.50;;;;;;;;;;5007536;28;20064;-78
2023/09/04 10:28:40;;;;;;;1.35;0.90;;;;;;;;;;5005784;28;20030;-77
2023/09/04 10:31:06;;;;;;;0.60;0.60;;;;;;;;;;4998428;28;20022;-78
2023/09/04 10:33:33;;;;;;;0.70;0.70;;;;;;;;;;5001116;28;20364;-78
2023/09/04 10:36:00;;;;;;;0.90;0.88;;;;;;;;;;5003814;28;20010;-78
2023/09/04 10:38:26;;;;;;;0.73;0.70;;;;;;;;;;4998789;28;20121;-78
2023/09/04 10:40:53;;;;;;;0.77;0.77;;;;;;;;;;5003320;28;20025;-78
2023/09/04 10:43:19;;;;;;;3.17;0.70;;;;;;;;;;4997816;28;20830;-78
2023/09/04 10:46:03;;;;;;;1.38;0.65;;;;;;;;;;4998338;28;20057;-78
2023/09/04 10:48:42;;;;;;;0.60;0.60;;;;;;;;;;4999394;28;20072;-78
2023/09/04 10:51:27;;;;;;;1.10;0.90;;;;;;;;;;5001122;28;20033;-78
2023/09/04 10:53:54;;;;;;;1.02;0.60;;;;;;;;;;5016352;28;20030;-78
2023/09/04 10:56:20;;;;;;;0.57;0.57;;;;;;;;;;5003151;28;20033;-78
2023/09/04 10:58:58;;;;;;;0.80;0.80;;;;;;;;;;5020592;28;20050;-79
2023/09/04 11:01:35;;;;;;;0.65;0.60;;;;;;;;;;5012153;28;20021;-78
2023/09/04 11:04:02;;;;;;;0.80;0.80;;;;;;;;;;5007779;28;20482;-78
2023/09/04 11:06:29;;;;;;;0.60;0.55;;;;;;;;;;4996344;28;20478;-79
2023/09/04 11:08:55;;;;;;;0.90;0.68;;;;;;;;;;5006536;28;20541;-78
2023/09/04 11:11:25;;;;;;;0.75;0.70;;;;;;;;;;4990926;28;20042;-79
2023/09/04 11:13:58;;;;;;;0.77;0.57;;;;;;;;;;5004126;28;20022;-78
2023/09/04 11:16:27;;;;;;;0.60;0.60;;;;;;;;;;4998704;28;20045;-78
2023/09/04 11:19:06;;;;;;;0.80;0.80;;;;;;;;;;4998930;28;20073;-78
2023/09/04 11:21:33;;;;;;;0.60;0.60;;;;;;;;;;5001420;28;20058;-78
2023/09/04 11:23:59;;;;;;;0.50;0.50;;;;;;;;;;4994783;28;20149;-83
2023/09/04 11:26:25;;;;;;;0.85;0.80;;;;;;;;;;4997553;28;20030;-87
2023/09/04 11:30:32;;;;;;;1.73;1.08;;;;;;;;;;5095837;27;20341;-87
2023/09/04 11:32:59;;;;;;;1.00;1.00;;;;;;;;;;5078339;28;20106;-86
2023/09/04 11:35:25;;;;;;;1.83;0.95;;;;;;;;;;5077141;28;20494;-82
2023/09/04 11:37:51;;;;;;;3.10;1.50;;;;;;;;;;5085150;28;20103;-86
2023/09/04 11:40:18;;;;;;;1.20;1.08;;;;;;;;;;5081727;28;20047;-85
2023/09/04 11:42:46;;;;;;;2.45;1.00;;;;;;;;;;5082516;28;20608;-85
2023/09/04 11:45:12;;;;;;;1.02;0.93;;;;;;;;;;5080535;28;20024;-86
2023/09/04 11:47:38;;;;;;;0.88;0.88;;;;;;;;;;5080248;28;20033;-85
2023/09/04 11:50:04;;;;;;;1.17;0.90;;;;;;;;;;5083756;28;20406;-86
2023/09/04 11:52:30;;;;;;;1.02;0.93;;;;;;;;;;5084553;28;20016;-85
2023/09/04 11:54:56;;;;;;;0.75;0.75;;;;;;;;;;5079618;28;20037;-85
2023/09/04 11:57:22;;;;;;;0.70;0.70;;;;;;;;;;5080549;28;20024;-85
2023/09/04 11:59:49;;;;;;;1.00;0.90;;;;;;;;;;5080137;28;20024;-84
2023/09/04 12:02:15;;;;;;;1.30;1.20;;;;;;;;;;5076897;28;20107;-84
2023/09/04 12:04:41;;;;;;;1.58;0.80;;;;;;;;;;5081556;28;20606;-85
2023/09/04 12:07:07;;;;;;;1.13;1.00;;;;;;;;;;5081647;28;20025;-84
2023/09/04 12:09:36;;;;;;;1.20;1.00;;;;;;;;;;5079352;28;20024;-85
2023/09/04 12:12:03;;;;;;;1.02;0.80;;;;;;;;;;5078403;28;20052;-84
2023/09/04 12:14:29;;;;;;;1.42;0.95;;;;;;;;;;5078810;28;20443;-84
2023/09/04 12:16:55;;;;;;;1.15;0.80;;;;;;;;;;5080161;28;20027;-84
2023/09/04 12:19:24;;;;;;;1.92;1.10;;;;;;;;;;5076805;28;20031;-84
2023/09/04 12:21:51;;;;;;;0.70;0.70;;;;;;;;;;5081590;28;20036;-83
2023/09/04 12:24:17;;;;;;;1.10;0.95;;;;;;;;;;5078230;28;20466;-83
2023/09/04 12:26:43;;;;;;;2.00;1.25;;;;;;;;;;5076867;28;20032;-84
2023/09/04 12:29:09;;;;;;;2.45;1.45;;;;;;;;;;5080185;28;20128;-84
2023/09/04 12:31:36;;;;;;;1.33;0.90;;;;;;;;;;5082000;28;20048;-84
2023/09/04 12:34:06;;;;;;;1.30;1.02;;;;;;;;;;5078379;28;20029;-84
2023/09/04 12:36:32;;;;;;;1.20;1.10;;;;;;;;;;5077675;28;20036;-84
2023/09/04 12:38:59;;;;;;;1.05;1.00;;;;;;;;;;5081441;28;20026;-84
2023/09/04 12:41:25;;;;;;;1.63;1.20;;;;;;;;;;5069508;28;20077;-84
2023/09/04 12:43:51;;;;;;;1.23;1.10;;;;;;;;;;5068959;28;20058;-84
2023/09/04 12:46:17;;;;;;;1.38;0.90;;;;;;;;;;5067269;28;20029;-83
2023/09/04 12:48:43;;;;;;;2.63;1.35;;;;;;;;;;5068291;28;20455;-84
2023/09/04 12:51:09;;;;;;;1.08;0.88;;;;;;;;;;5066994;28;20111;-84
2023/09/04 12:53:35;;;;;;;1.08;0.98;;;;;;;;;;5069071;28;20024;-83
2023/09/04 12:56:03;;;;;;;1.20;1.10;;;;;;;;;;5068027;28;20039;-83
2023/09/04 12:58:29;;;;;;;1.23;1.15;;;;;;;;;;5063947;28;20047;-83
2023/09/04 13:00:55;;;;;;;1.48;1.08;;;;;;;;;;5067324;28;20082;-84
2023/09/04 13:03:21;;;;;;;2.30;1.23;;;;;;;;;;5069509;28;20052;-83
2023/09/04 13:05:47;;;;;;;1.10;0.95;;;;;;;;;;5066519;28;20017;-84
2023/09/04 13:08:13;;;;;;;1.50;1.00;;;;;;;;;;5056460;28;20032;-76
2023/09/04 13:10:42;;;;;;;1.23;1.08;;;;;;;;;;5056042;28;20392;-78
2023/09/04 13:13:08;;;;;;;1.25;1.15;;;;;;;;;;5049197;28;20101;-79
2023/09/04 13:15:34;;;;;;;1.00;1.00;;;;;;;;;;5057179;28;20073;-78
2023/09/04 13:18:00;;;;;;;3.45;1.23;;;;;;;;;;5068510;28;20031;-79
2023/09/04 13:20:26;;;;;;;1.67;1.35;;;;;;;;;;5067023;28;20032;-77
2023/09/04 13:22:52;;;;;;;1.30;1.20;;;;;;;;;;5062158;28;20029;-84
2023/09/04 13:25:18;;;;;;;1.10;1.00;;;;;;;;;;5056252;28;20043;-80
2023/09/04 13:27:44;;;;;;;1.48;0.98;;;;;;;;;;5055632;28;20024;-84
2023/09/04 13:30:10;;;;;;;1.25;1.02;;;;;;;;;;5060768;28;20040;-78
2023/09/04 13:32:37;;;;;;;1.42;1.20;;;;;;;;;;5050895;28;20033;-79
2023/09/04 13:35:07;;;;;;;1.10;1.00;;;;;;;;;;5050013;28;20020;-79
2023/09/04 13:37:34;;;;;;;0.77;0.77;;;;;;;;;;5057563;28;20058;-78
2023/09/04 13:40:00;;;;;;;3.75;0.90;;;;;;;;;;5053670;28;20041;-79
2023/09/04 13:42:26;;;;;;;1.15;1.02;;;;;;;;;;5058204;28;20021;-78
2023/09/04 13:44:57;;;;;;;1.08;0.80;;;;;;;;;;5053522;28;20029;-78
2023/09/04 13:47:24;;;;;;;1.58;1.15;;;;;;;;;;5055272;28;20021;-79
2023/09/04 13:49:50;;;;;;;1.17;0.75;;;;;;;;;;5057906;28;20044;-77
2023/09/04 13:52:16;;;;;;;1.35;0.82;;;;;;;;;;5049903;28;20372;-77
2023/09/04 13:54:43;;;;;;;1.85;0.93;;;;;;;;;;5059467;28;20039;-77
2023/09/04 13:57:09;;;;;;;4.45;1.10;;;;;;;;;;5058409;28;20371;-84
2023/09/04 13:59:35;;;;;;;1.20;1.10;;;;;;;;;;5056294;28;20048;-83
2023/09/04 14:02:02;;;;;;;3.00;1.15;;;;;;;;;;5062499;28;20025;-87
2023/09/04 14:04:28;;;;;;;1.15;1.05;;;;;;;;;;5066459;28;20530;-77
2023/09/04 14:06:54;;;;;;;1.40;1.30;;;;;;;;;;5067913;28;20031;-79
2023/09/04 14:09:23;;;;;;;1.20;1.10;;;;;;;;;;5060636;28;20523;-78
2023/09/04 14:11:49;;;;;;;1.13;1.00;;;;;;;;;;5061034;28;20035;-78
2023/09/04 14:14:15;;;;;;;1.10;0.93;;;;;;;;;;5054931;28;20016;-78
2023/09/04 14:16:41;;;;;;;2.05;1.17;;;;;;;;;;5064796;28;20059;-79
2023/09/04 14:19:09;;;;;;;1.13;1.02;;;;;;;;;;5057804;28;20013;-79
2023/09/04 14:21:36;;;;;;;1.38;1.20;;;;;;;;;;5064615;28;20036;-79
2023/09/04 14:24:02;;;;;;;3.15;1.00;;;;;;;;;;5050140;28;20021;-79
2023/09/04 14:26:28;;;;;;;2.55;0.82;;;;;;;;;;5056775;28;20111;-79
2023/09/04 14:28:54;;;;;;;1.10;1.00;;;;;;;;;;5052731;28;20049;-76
2023/09/04 14:31:20;;;;;;;4.30;1.20;;;;;;;;;;5061370;28;20028;-78
2023/09/04 14:33:46;;;;;;;0.77;0.77;;;;;;;;;;5056165;28;20013;-81
2023/09/04 14:36:13;;;;;;;1.67;1.08;;;;;;;;;;5065625;28;20383;-79
2023/09/04 14:38:40;;;;;;;1.52;1.17;;;;;;;;;;5053571;28;20024;-80
2023/09/04 14:41:32;;;;;;;9.10;1.02;;;;;;;;;;5061184;28;20556;-79
2023/09/04 14:43:58;;;;;;;1.17;1.13;;;;;;;;;;5060231;28;20471;-79